createdAt,value
2023-03-02T00:01:33.148Z,-1.70
2023-03-02T00:04:02.934Z,-1.70
2023-03-02T00:06:32.340Z,-1.80
2023-03-02T00:09:00.750Z,-1.80
2023-03-02T00:11:30.497Z,-1.80
2023-03-02T00:13:58.491Z,-1.90
2023-03-02T00:16:25.842Z,-1.90
2023-03-02T00:18:53.419Z,-1.80
2023-03-02T00:21:20.667Z,-1.80
2023-03-02T00:23:48.179Z,-1.80
2023-03-02T00:26:15.453Z,-1.80
2023-03-02T00:28:43.008Z,-1.80
2023-03-02T00:31:11.189Z,-1.80
2023-03-02T00:33:38.778Z,-1.70
2023-03-02T00:36:06.472Z,-1.80
2023-03-02T00:38:33.979Z,-1.80
2023-03-02T00:41:01.396Z,-1.90
2023-03-02T00:43:29.360Z,-1.90
2023-03-02T00:45:56.627Z,-1.90
2023-03-02T00:48:24.181Z,-1.90
2023-03-02T00:50:51.324Z,-1.90
2023-03-02T00:53:19.051Z,-1.90
2023-03-02T00:55:54.477Z,-1.90
2023-03-02T00:58:23.255Z,-1.90
2023-03-02T01:00:50.676Z,-1.90
2023-03-02T01:03:18.218Z,-2.00
2023-03-02T01:05:45.703Z,-2.00
2023-03-02T01:08:13.352Z,-1.90
2023-03-02T01:10:41.251Z,-2.00
2023-03-02T01:13:08.770Z,-2.00
2023-03-02T01:15:36.123Z,-2.00
2023-03-02T01:18:03.961Z,-2.10
2023-03-02T01:20:31.387Z,-2.10
2023-03-02T01:22:58.873Z,-2.10
2023-03-02T01:25:26.161Z,-2.10
2023-03-02T01:27:53.909Z,-2.10
2023-03-02T01:30:21.295Z,-2.20
2023-03-02T01:32:48.778Z,-2.20
2023-03-02T01:35:16.786Z,-2.20
2023-03-02T01:37:44.218Z,-2.20
2023-03-02T01:40:14.266Z,-2.20
2023-03-02T01:42:51.212Z,-2.20
2023-03-02T01:45:53.364Z,-2.30
2023-03-02T01:48:47.154Z,-2.40
2023-03-02T01:51:23.016Z,-2.40
2023-03-02T01:53:55.607Z,-2.40
2023-03-02T01:56:29.435Z,-2.40
2023-03-02T01:59:02.038Z,-2.40
2023-03-02T02:01:34.651Z,-2.40
2023-03-02T02:04:02.893Z,-2.40
2023-03-02T02:06:47.859Z,-2.40
2023-03-02T02:09:18.200Z,-2.40
2023-03-02T02:11:46.641Z,-2.40
2023-03-02T02:14:14.993Z,-2.40
2023-03-02T02:16:42.577Z,-2.40
2023-03-02T02:19:28.057Z,-2.50
2023-03-02T02:21:57.472Z,-2.50
2023-03-02T02:24:38.613Z,-2.50
2023-03-02T02:27:05.977Z,-2.40
2023-03-02T02:29:45.621Z,-2.40
2023-03-02T02:32:30.741Z,-2.40
2023-03-02T02:35:10.708Z,-2.40
2023-03-02T02:37:43.011Z,-2.40
2023-03-02T02:40:41.466Z,-2.40
2023-03-02T02:43:17.885Z,-2.50
2023-03-02T02:45:47.656Z,-2.40
2023-03-02T02:48:21.251Z,-2.50
2023-03-02T02:50:49.161Z,-2.50
2023-03-02T02:53:21.967Z,-2.50
2023-03-02T02:55:52.867Z,-2.50
2023-03-02T02:58:28.517Z,-2.60
2023-03-02T03:00:56.337Z,-2.60
2023-03-02T03:03:34.078Z,-2.60
2023-03-02T03:06:09.284Z,-2.60
2023-03-02T03:08:45.588Z,-2.60
2023-03-02T03:11:30.647Z,-2.60
2023-03-02T03:14:09.729Z,-2.70
2023-03-02T03:16:40.085Z,-2.70
2023-03-02T03:19:33.749Z,-2.60
2023-03-02T03:22:02.884Z,-2.60
2023-03-02T03:24:35.228Z,-2.70
2023-03-02T03:27:06.423Z,-2.70
2023-03-02T03:29:38.101Z,-2.70
2023-03-02T03:32:07.556Z,-2.70
2023-03-02T03:34:41.061Z,-2.70
2023-03-02T03:37:29.281Z,-2.80
2023-03-02T03:39:56.524Z,-2.80
2023-03-02T03:42:24.737Z,-2.70
2023-03-02T03:44:54.262Z,-2.70
2023-03-02T03:47:22.405Z,-2.70
2023-03-02T03:49:50.977Z,-2.80
2023-03-02T03:52:18.642Z,-2.80
2023-03-02T03:54:46.073Z,-2.80
2023-03-02T03:57:13.553Z,-2.80
2023-03-02T03:59:40.712Z,-2.80
2023-03-02T04:02:08.307Z,-2.80
2023-03-02T04:04:41.469Z,-2.80
2023-03-02T04:07:14.228Z,-2.90
2023-03-02T04:09:42.511Z,-2.90
2023-03-02T04:12:12.876Z,-2.90
2023-03-02T04:14:44.020Z,-2.90
2023-03-02T04:17:14.303Z,-2.90
2023-03-02T04:19:45.762Z,-2.90
2023-03-02T04:22:15.204Z,-2.90
2023-03-02T04:24:43.534Z,-2.90
2023-03-02T04:27:11.438Z,-2.90
2023-03-02T04:29:38.653Z,-2.90
2023-03-02T04:32:09.823Z,-3.00
2023-03-02T04:34:38.944Z,-3.00
2023-03-02T04:37:06.614Z,-2.90
2023-03-02T04:39:33.882Z,-3.00
2023-03-02T04:42:01.592Z,-3.10
2023-03-02T04:44:28.763Z,-3.10
2023-03-02T04:46:56.282Z,-3.00
2023-03-02T04:49:23.586Z,-3.00
2023-03-02T04:51:51.222Z,-3.00
2023-03-02T04:54:24.852Z,-3.00
2023-03-02T04:56:53.484Z,-3.00
2023-03-02T04:59:25.888Z,-3.10
2023-03-02T05:01:55.623Z,-3.00
2023-03-02T05:04:23.737Z,-3.00
2023-03-02T05:06:53.914Z,-3.10
2023-03-02T05:09:27.117Z,-3.10
2023-03-02T05:11:55.945Z,-3.20
2023-03-02T05:14:23.921Z,-3.20
2023-03-02T05:16:51.856Z,-3.10
2023-03-02T05:19:20.142Z,-3.10
2023-03-02T05:21:47.554Z,-3.10
2023-03-02T05:24:14.880Z,-3.00
2023-03-02T05:26:42.513Z,-3.00
2023-03-02T05:29:09.732Z,-3.00
2023-03-02T05:31:40.474Z,-3.00
2023-03-02T05:34:12.120Z,-3.20
2023-03-02T05:36:40.124Z,-3.20
2023-03-02T05:39:08.731Z,-3.20
2023-03-02T05:41:37.230Z,-3.00
2023-03-02T05:44:06.015Z,-2.80
2023-03-02T05:46:33.878Z,-2.50
2023-03-02T05:49:01.534Z,-2.30
2023-03-02T05:51:29.045Z,-2.10
2023-03-02T05:53:56.244Z,-1.80
2023-03-02T05:56:26.246Z,-1.70
2023-03-02T05:58:54.766Z,-1.50
2023-03-02T06:01:22.288Z,-1.30
2023-03-02T06:03:51.294Z,-1.10
2023-03-02T06:06:18.831Z,-1.00
2023-03-02T06:08:46.126Z,-0.90
2023-03-02T06:11:13.685Z,-0.70
2023-03-02T06:13:40.936Z,-0.40
2023-03-02T06:16:09.339Z,-0.30
2023-03-02T06:18:39.706Z,-0.20
2023-03-02T06:21:08.775Z,-0.10
2023-03-02T06:23:36.004Z,0.10
2023-03-02T06:26:09.273Z,0.30
2023-03-02T06:28:49.840Z,0.50
2023-03-02T06:31:20.730Z,0.60
2023-03-02T06:33:48.059Z,0.70
2023-03-02T06:36:17.351Z,0.80
2023-03-02T06:38:45.753Z,0.90
2023-03-02T06:41:13.435Z,1.00
2023-03-02T06:43:40.728Z,1.20
2023-03-02T06:46:08.728Z,1.20
2023-03-02T06:48:36.048Z,1.40
2023-03-02T06:51:04.090Z,1.40
2023-03-02T06:53:31.344Z,1.50
2023-03-02T06:55:59.018Z,1.30
2023-03-02T06:58:26.513Z,1.40
2023-03-02T07:00:53.983Z,1.70
2023-03-02T07:03:21.344Z,1.70
2023-03-02T07:05:49.205Z,1.90
2023-03-02T07:08:16.646Z,2.00
2023-03-02T07:10:45.111Z,2.10
2023-03-02T07:13:12.885Z,2.20
2023-03-02T07:15:41.512Z,2.40
2023-03-02T07:18:08.779Z,2.50
2023-03-02T07:20:36.302Z,2.60
2023-03-02T07:23:03.580Z,2.90
2023-03-02T07:25:31.443Z,3.00
2023-03-02T07:27:58.841Z,2.80
2023-03-02T07:30:26.376Z,3.00
2023-03-02T07:32:53.720Z,3.20
2023-03-02T07:35:21.584Z,3.30
2023-03-02T07:37:49.074Z,3.60
2023-03-02T07:40:17.493Z,3.80
2023-03-02T07:42:44.908Z,3.60
2023-03-02T07:45:16.850Z,3.60
2023-03-02T07:47:44.124Z,3.70
2023-03-02T07:50:12.146Z,3.90
2023-03-02T07:52:39.681Z,3.90
2023-03-02T07:55:07.405Z,4.10
2023-03-02T07:57:34.982Z,4.20
2023-03-02T08:00:03.512Z,4.30
2023-03-02T08:02:42.186Z,4.40
2023-03-02T08:05:11.277Z,4.50
2023-03-02T08:07:38.752Z,4.60
2023-03-02T08:10:07.206Z,4.60
2023-03-02T08:12:34.478Z,4.40
2023-03-02T08:15:03.738Z,4.60
2023-03-02T08:17:32.484Z,4.70
2023-03-02T08:20:00.138Z,4.80
2023-03-02T08:22:27.392Z,4.90
2023-03-02T08:24:54.962Z,4.80
2023-03-02T08:27:22.145Z,5.00
2023-03-02T08:29:49.605Z,5.00
2023-03-02T08:32:18.028Z,5.10
2023-03-02T08:34:45.752Z,5.30
2023-03-02T08:37:12.970Z,5.50
2023-03-02T08:39:40.418Z,5.40
2023-03-02T08:42:08.566Z,5.50
2023-03-02T08:44:38.169Z,5.70
2023-03-02T08:47:05.465Z,5.80
2023-03-02T08:49:33.222Z,5.50
2023-03-02T08:52:00.776Z,5.00
2023-03-02T08:54:28.338Z,4.60
2023-03-02T08:56:55.568Z,4.50
2023-03-02T08:59:23.180Z,4.60
2023-03-02T09:01:51.064Z,4.60
2023-03-02T09:04:18.979Z,4.50
2023-03-02T09:06:46.222Z,4.60
2023-03-02T09:09:15.273Z,4.70
2023-03-02T09:11:43.605Z,4.80
2023-03-02T09:14:11.654Z,5.10
2023-03-02T09:16:39.232Z,5.40
2023-03-02T09:19:08.363Z,5.80
2023-03-02T09:21:35.811Z,6.10
2023-03-02T09:24:03.684Z,6.50
2023-03-02T09:26:30.870Z,6.80
2023-03-02T09:28:58.479Z,7.10
2023-03-02T09:31:26.079Z,7.20
2023-03-02T09:33:57.032Z,7.10
2023-03-02T09:36:26.067Z,7.10
2023-03-02T09:38:54.414Z,7.10
2023-03-02T09:41:21.522Z,7.40
2023-03-02T09:44:26.419Z,7.50
2023-03-02T09:47:09.225Z,7.70
2023-03-02T09:49:49.119Z,8.10
2023-03-02T09:52:22.333Z,8.20
2023-03-02T09:54:49.992Z,8.20
2023-03-02T09:57:31.943Z,8.20
2023-03-02T10:00:18.610Z,8.10
2023-03-02T10:02:50.804Z,8.10
2023-03-02T10:05:23.362Z,8.20
2023-03-02T10:07:50.781Z,8.50
2023-03-02T10:10:23.405Z,8.00
2023-03-02T10:12:51.044Z,7.70
2023-03-02T10:15:47.670Z,7.50
2023-03-02T10:18:23.471Z,7.60
2023-03-02T10:21:43.445Z,7.60
2023-03-02T10:24:21.656Z,8.00
2023-03-02T10:26:55.432Z,8.10
2023-03-02T10:29:25.449Z,8.20
2023-03-02T10:32:01.961Z,8.50
2023-03-02T10:34:30.691Z,8.50
2023-03-02T10:36:58.749Z,8.20
2023-03-02T10:39:27.289Z,8.40
2023-03-02T10:42:04.573Z,7.90
2023-03-02T10:44:46.255Z,7.80
2023-03-02T10:47:26.565Z,7.90
2023-03-02T10:49:56.114Z,8.00
2023-03-02T10:52:28.874Z,8.00
2023-03-02T10:55:12.688Z,8.40
2023-03-02T10:57:43.468Z,8.70
2023-03-02T11:00:14.125Z,9.00
2023-03-02T11:02:50.496Z,9.10
2023-03-02T11:05:37.585Z,8.60
2023-03-02T11:08:18.455Z,8.40
2023-03-02T11:11:00.652Z,8.10
2023-03-02T11:13:39.134Z,8.50
2023-03-02T11:16:18.138Z,8.80
2023-03-02T11:19:07.258Z,9.00
2023-03-02T11:22:47.597Z,8.10
2023-03-02T11:25:39.293Z,7.60
2023-03-02T11:28:32.914Z,7.40
2023-03-02T11:31:05.686Z,7.80
2023-03-02T11:33:51.609Z,7.90
2023-03-02T11:36:24.572Z,8.40
2023-03-02T11:38:54.823Z,8.60
2023-03-02T11:41:29.575Z,8.90
2023-03-02T11:44:04.716Z,8.80
2023-03-02T11:46:33.711Z,8.90
2023-03-02T11:49:13.109Z,9.10
2023-03-02T11:51:57.823Z,8.80
2023-03-02T11:54:29.090Z,8.80
2023-03-02T11:56:56.597Z,8.40
2023-03-02T11:59:27.580Z,8.30
2023-03-02T12:01:57.735Z,8.40
2023-03-02T12:04:27.143Z,8.50
2023-03-02T12:06:55.164Z,9.00
2023-03-02T12:09:30.817Z,9.50
2023-03-02T12:12:32.670Z,8.90
2023-03-02T12:15:02.213Z,8.50
2023-03-02T12:17:33.718Z,8.70
2023-03-02T12:20:27.273Z,8.80
2023-03-02T12:23:06.779Z,8.70
2023-03-02T12:25:40.826Z,8.80
2023-03-02T12:28:28.146Z,8.80
2023-03-02T12:31:10.560Z,8.60
2023-03-02T12:33:49.760Z,8.50
2023-03-02T12:36:29.505Z,7.60
2023-03-02T12:39:18.484Z,7.60
2023-03-02T12:41:55.682Z,7.70
2023-03-02T12:44:51.655Z,7.40
2023-03-02T12:47:27.878Z,7.50
2023-03-02T12:50:00.341Z,7.70
2023-03-02T12:52:34.589Z,7.30
2023-03-02T12:55:07.565Z,7.30
2023-03-02T12:57:38.537Z,7.30
2023-03-02T13:00:16.891Z,7.50
2023-03-02T13:02:53.565Z,7.20
2023-03-02T13:05:25.118Z,7.50
2023-03-02T13:08:08.787Z,7.10
2023-03-02T13:10:48.965Z,7.20
2023-03-02T13:13:49.961Z,7.10
2023-03-02T13:16:26.382Z,7.20
2023-03-02T13:18:59.947Z,7.40
2023-03-02T13:21:37.815Z,7.20
2023-03-02T13:24:44.020Z,6.90
2023-03-02T13:27:21.382Z,6.60
2023-03-02T13:29:49.486Z,6.80
2023-03-02T13:32:26.164Z,6.80
2023-03-02T13:34:57.340Z,6.90
2023-03-02T13:37:39.179Z,7.20
2023-03-02T13:40:27.037Z,6.80
2023-03-02T13:42:55.188Z,6.80
2023-03-02T13:45:25.368Z,6.70
2023-03-02T13:47:54.605Z,6.70
2023-03-02T13:50:27.817Z,6.80
2023-03-02T13:52:58.431Z,6.40
2023-03-02T13:55:26.287Z,6.30
2023-03-02T13:57:55.851Z,6.20
2023-03-02T14:00:29.653Z,6.20
2023-03-02T14:02:57.087Z,6.10
2023-03-02T14:24:57.112Z,5.20
2023-03-02T14:27:29.320Z,5.10
2023-03-02T14:29:56.749Z,5.10
2023-03-02T14:32:24.222Z,5.00
2023-03-02T14:34:51.426Z,5.00
2023-03-02T14:37:24.379Z,4.80
2023-03-02T14:39:54.283Z,4.90
2023-03-02T14:42:23.645Z,5.00
2023-03-02T14:44:51.710Z,4.80
2023-03-02T14:47:19.697Z,4.80
2023-03-02T14:49:48.870Z,4.90
2023-03-02T14:52:38.073Z,4.90
2023-03-02T14:55:15.356Z,4.80
2023-03-02T14:57:43.039Z,4.70
2023-03-02T15:00:15.353Z,4.40
2023-03-02T15:02:43.118Z,4.40
2023-03-02T15:05:10.584Z,4.30
2023-03-02T15:07:39.002Z,4.30
2023-03-02T15:10:07.194Z,4.40
2023-03-02T15:12:34.739Z,4.40
2023-03-02T15:15:02.197Z,4.00
2023-03-02T15:17:29.695Z,4.10
2023-03-02T15:19:57.104Z,4.00
2023-03-02T15:22:24.859Z,4.00
2023-03-02T15:25:57.260Z,4.10
2023-03-02T15:28:24.807Z,3.70
2023-03-02T15:30:52.137Z,3.50
2023-03-02T15:33:19.580Z,3.40
2023-03-02T15:35:55.434Z,3.30
2023-03-02T15:38:23.613Z,3.30
2023-03-02T15:40:50.872Z,3.30
2023-03-02T15:43:18.329Z,3.20
2023-03-02T15:45:46.403Z,3.20
2023-03-02T15:48:14.049Z,3.20
2023-03-02T15:50:41.325Z,3.30
2023-03-02T15:53:08.840Z,3.40
2023-03-02T15:55:41.560Z,3.60
2023-03-02T15:58:09.474Z,3.40
2023-03-02T16:00:37.898Z,3.40
2023-03-02T16:03:05.677Z,3.40
2023-03-02T16:05:33.303Z,3.30
2023-03-02T16:08:00.741Z,3.40
2023-03-02T16:10:31.824Z,3.40
2023-03-02T16:13:03.216Z,3.20
2023-03-02T16:15:30.657Z,3.20
2023-03-02T16:17:58.147Z,3.20
2023-03-02T16:20:25.338Z,3.20
2023-03-02T16:22:52.795Z,3.20
2023-03-02T16:25:20.081Z,3.40
2023-03-02T16:27:48.158Z,3.50
2023-03-02T16:30:16.450Z,3.50
2023-03-02T16:32:43.988Z,3.60
2023-03-02T16:35:11.253Z,3.50
2023-03-02T16:37:38.772Z,3.50
2023-03-02T16:40:06.611Z,3.60
2023-03-02T16:42:34.126Z,3.30
2023-03-02T16:45:01.339Z,3.10
2023-03-02T16:47:28.789Z,3.20
2023-03-02T16:49:55.989Z,3.20
2023-03-02T16:52:23.480Z,3.10
2023-03-02T16:54:50.682Z,3.20
2023-03-02T16:57:18.299Z,3.30
2023-03-02T16:59:45.543Z,3.20
2023-03-02T17:02:13.232Z,3.30
2023-03-02T17:04:40.808Z,3.40
2023-03-02T17:07:08.826Z,3.40
2023-03-02T17:09:38.307Z,3.20
2023-03-02T17:12:06.057Z,3.20
2023-03-02T17:14:33.415Z,3.10
2023-03-02T17:17:01.652Z,3.00
2023-03-02T17:19:29.731Z,3.10
2023-03-02T17:21:58.747Z,3.10
2023-03-02T17:24:27.230Z,3.10
2023-03-02T17:26:55.130Z,3.30
2023-03-02T17:29:22.564Z,3.30
2023-03-02T17:31:50.018Z,3.00
2023-03-02T17:34:17.298Z,2.90
2023-03-02T17:36:44.841Z,2.90
2023-03-02T17:39:12.035Z,3.10
2023-03-02T17:41:39.602Z,3.20
2023-03-02T17:44:06.802Z,3.20
2023-03-02T17:46:34.374Z,3.40
2023-03-02T17:49:01.790Z,3.40
2023-03-02T17:51:30.146Z,3.30
2023-03-02T17:53:57.328Z,3.30
2023-03-02T17:56:27.581Z,3.20
2023-03-02T17:58:56.262Z,3.10
2023-03-02T18:01:24.440Z,3.00
2023-03-02T18:03:51.858Z,2.90
2023-03-02T18:06:20.734Z,2.90
2023-03-02T18:08:49.547Z,2.80
2023-03-02T18:11:18.904Z,2.80
2023-03-02T18:13:46.221Z,2.80
2023-03-02T18:16:13.713Z,3.00
2023-03-02T18:18:40.968Z,3.00
2023-03-02T18:21:08.615Z,3.00
2023-03-02T18:23:36.104Z,2.90
2023-03-02T18:26:03.641Z,2.80
2023-03-02T18:28:31.291Z,2.70
2023-03-02T18:30:58.782Z,2.70
2023-03-02T18:33:26.395Z,2.60
2023-03-02T18:35:54.525Z,2.50
2023-03-02T18:38:21.783Z,2.60
2023-03-02T18:40:49.298Z,2.70
2023-03-02T18:43:16.440Z,2.90
2023-03-02T18:45:43.958Z,3.00
2023-03-02T18:48:11.182Z,3.10
2023-03-02T18:50:39.592Z,3.20
2023-03-02T18:53:08.550Z,3.20
2023-03-02T18:55:40.455Z,3.20
2023-03-02T18:58:13.628Z,3.10
2023-03-02T19:00:41.391Z,3.10
2023-03-02T19:03:08.568Z,3.10
2023-03-02T19:05:36.384Z,3.10
2023-03-02T19:08:08.618Z,3.10
2023-03-02T19:10:42.210Z,3.10
2023-03-02T19:13:11.663Z,3.30
2023-03-02T19:15:39.945Z,3.20
2023-03-02T19:18:07.392Z,3.10
2023-03-02T19:20:35.366Z,3.00
2023-03-02T19:23:02.546Z,3.00
2023-03-02T19:25:30.060Z,3.00
2023-03-02T19:27:57.424Z,3.00
2023-03-02T19:30:26.301Z,2.90
2023-03-02T19:32:54.245Z,2.80
2023-03-02T19:35:24.001Z,2.70
2023-03-02T19:37:51.295Z,2.50
2023-03-02T19:40:21.046Z,2.40
2023-03-02T19:42:49.217Z,2.30
2023-03-02T19:45:20.775Z,2.20
2023-03-02T19:47:48.693Z,2.00
2023-03-02T19:50:18.839Z,1.90
2023-03-02T19:52:46.538Z,1.90
2023-03-02T19:55:15.690Z,1.80
2023-03-02T19:57:43.338Z,1.80
2023-03-02T20:00:15.671Z,1.70
2023-03-02T20:02:45.066Z,1.60
2023-03-02T20:05:12.648Z,1.50
2023-03-02T20:07:41.860Z,1.40
2023-03-02T20:10:10.609Z,1.30
2023-03-02T20:12:38.153Z,1.20
2023-03-02T20:15:06.442Z,1.10
2023-03-02T20:17:33.986Z,1.10
2023-03-02T20:20:03.544Z,1.10
2023-03-02T20:22:30.747Z,1.10
2023-03-02T20:24:58.217Z,1.00
2023-03-02T20:27:25.373Z,1.00
2023-03-02T20:29:52.886Z,0.90
2023-03-02T20:32:20.323Z,0.90
2023-03-02T20:34:47.867Z,0.90
2023-03-02T20:37:15.706Z,0.80
2023-03-02T20:39:45.380Z,0.70
2023-03-02T20:42:12.900Z,0.70
2023-03-02T20:44:41.888Z,0.60
2023-03-02T20:47:15.118Z,0.60
2023-03-02T20:49:43.286Z,0.50
2023-03-02T20:52:11.201Z,0.50
2023-03-02T20:54:42.113Z,0.50
2023-03-02T20:57:12.488Z,0.50
2023-03-02T20:59:40.926Z,0.50
2023-03-02T21:02:08.626Z,0.40
2023-03-02T21:04:36.217Z,0.40
2023-03-02T21:07:03.553Z,0.30
2023-03-02T21:09:31.032Z,0.20
2023-03-02T21:11:58.906Z,0.20
2023-03-02T21:14:30.709Z,0.10
2023-03-02T21:16:58.594Z,0.10
2023-03-02T21:19:26.571Z,0.10
2023-03-02T21:21:55.268Z,0.00
2023-03-02T21:24:23.485Z,0.00
2023-03-02T21:26:52.566Z,0.00
2023-03-02T21:29:21.935Z,0.00
2023-03-02T21:31:49.444Z,0.00
2023-03-02T21:34:18.937Z,0.00
2023-03-02T21:36:46.596Z,-0.10
2023-03-02T21:39:14.519Z,-0.10
2023-03-02T21:41:41.733Z,0.00
2023-03-02T21:44:09.258Z,0.00
2023-03-02T21:46:38.071Z,0.00
2023-03-02T21:49:05.791Z,0.10
2023-03-02T21:51:35.307Z,0.30
2023-03-02T21:54:03.292Z,0.30
2023-03-02T21:59:02.013Z,0.50
2023-03-02T22:01:32.734Z,0.80
2023-03-02T22:04:00.680Z,0.90
2023-03-02T22:06:31.050Z,1.10
2023-03-02T22:08:58.544Z,1.10
2023-03-02T22:11:29.103Z,1.30
2023-03-02T22:13:58.995Z,1.50
2023-03-02T22:16:28.781Z,1.50
2023-03-02T22:18:58.552Z,1.50
2023-03-02T22:21:43.478Z,1.60
2023-03-02T22:24:13.381Z,1.70
2023-03-02T22:26:46.617Z,1.70
2023-03-02T22:29:16.815Z,1.70
2023-03-02T22:31:50.139Z,1.70
2023-03-02T22:34:23.018Z,1.80
2023-03-02T22:36:50.765Z,2.00
2023-03-02T22:39:29.189Z,2.20
2023-03-02T22:42:16.322Z,2.30
2023-03-02T22:44:47.400Z,2.30
2023-03-02T22:47:19.228Z,2.50
2023-03-02T22:49:47.941Z,2.50
2023-03-02T22:52:19.976Z,2.50
2023-03-02T22:54:47.286Z,2.50
2023-03-02T22:57:33.845Z,2.50
2023-03-02T23:00:16.330Z,2.60
2023-03-02T23:02:45.511Z,2.60
2023-03-02T23:05:29.789Z,2.60
2023-03-02T23:08:22.466Z,2.60
2023-03-02T23:10:52.054Z,2.60
2023-03-02T23:13:22.600Z,2.60
2023-03-02T23:15:50.873Z,2.60
2023-03-02T23:18:21.409Z,2.50
2023-03-02T23:20:49.801Z,2.40
2023-03-02T23:23:18.169Z,2.30
2023-03-02T23:25:46.166Z,2.30
2023-03-02T23:28:13.841Z,2.30
2023-03-02T23:30:41.010Z,2.30
2023-03-02T23:33:08.921Z,2.30
2023-03-02T23:35:36.242Z,2.20
2023-03-02T23:38:03.700Z,2.30
2023-03-02T23:40:30.875Z,2.20
2023-03-02T23:42:58.339Z,2.20
2023-03-02T23:45:26.483Z,2.20
2023-03-02T23:47:53.975Z,2.20
2023-03-02T23:50:21.177Z,2.30
2023-03-02T23:52:49.238Z,2.30
2023-03-02T23:55:16.592Z,2.30
2023-03-02T23:57:44.041Z,2.30
